Time;durP1;ratioP1;P1;durP2;ratioP2;P2;SDS_P1;SDS_P2;PMS_P1;PMS_P2;Temp;Humidity;BMP_temperature;BMP_pressure;BME280_temperature;BME280_humidity;BME280_pressure;Samples;Min_cycle;Max_cycle;Signal;HPM_P1;HPM_P2
2023/04/03 00:00:57;;;;;;;14.80;7.15;;;3.40;62.70;;;;;;5035613;28;20387;-71
2023/04/03 00:03:22;;;;;;;12.15;7.70;;;3.10;65.40;;;;;;5035479;28;20408;-73
2023/04/03 00:05:48;;;;;;;10.30;7.10;;;2.80;68.60;;;;;;5044715;28;20391;-73
2023/04/03 00:08:14;;;;;;;11.80;7.72;;;2.60;72.00;;;;;;5042745;28;20826;-72
2023/04/03 00:10:39;;;;;;;15.52;8.35;;;2.40;75.50;;;;;;5040930;28;20589;-72
2023/04/03 00:13:06;;;;;;;13.20;8.87;;;2.30;78.40;;;;;;5033858;28;20407;-72
2023/04/03 00:15:32;;;;;;;10.73;7.78;;;2.20;81.10;;;;;;5034240;28;20462;-72
2023/04/03 00:17:57;;;;;;;10.18;7.10;;;2.10;83.10;;;;;;5034358;28;20430;-72
2023/04/03 00:20:23;;;;;;;9.73;7.10;;;2.00;84.10;;;;;;5034258;28;20449;-71
2023/04/03 00:22:49;;;;;;;10.73;7.53;;;1.90;85.40;;;;;;5032930;28;20387;-72
2023/04/03 00:25:14;;;;;;;14.98;8.90;;;2.00;86.40;;;;;;5033059;28;20383;-72
2023/04/03 00:27:40;;;;;;;8.45;6.53;;;2.00;87.10;;;;;;5033430;28;20438;-71
2023/04/03 00:30:08;;;;;;;12.85;8.10;;;1.90;87.40;;;;;;5033574;28;20383;-71
2023/04/03 00:32:34;;;;;;;11.73;8.85;;;2.20;87.40;;;;;;5033378;28;20991;-72
2023/04/03 00:35:00;;;;;;;12.85;8.25;;;2.40;81.20;;;;;;5034103;28;20753;-72
2023/04/03 00:37:25;;;;;;;11.87;6.80;;;2.40;81.20;;;;;;5035007;28;20394;-72
2023/04/03 00:39:51;;;;;;;10.40;6.80;;;2.70;75.00;;;;;;5034063;28;20390;-72
2023/04/03 00:42:17;;;;;;;12.32;7.00;;;3.00;69.80;;;;;;5032947;28;20394;-72
2023/04/03 00:44:42;;;;;;;13.73;6.72;;;3.00;66.10;;;;;;5032918;28;20883;-72
2023/04/03 00:47:12;;;;;;;10.20;6.60;;;3.00;65.30;;;;;;5032418;28;20403;-72
2023/04/03 00:49:39;;;;;;;15.00;7.50;;;3.00;65.50;;;;;;5032553;28;20390;-72
2023/04/03 00:52:15;;;;;;;11.63;6.33;;;3.00;65.60;;;;;;5032611;28;20770;-74
2023/04/03 00:54:41;;;;;;;8.57;6.88;;;3.00;64.50;;;;;;5031297;28;20828;-73
2023/04/03 00:57:08;;;;;;;13.32;7.50;;;3.00;64.60;;;;;;5031403;28;20399;-72
2023/04/03 00:59:40;;;;;;;12.30;7.32;;;3.00;64.70;;;;;;5031747;28;20407;-72
2023/04/03 01:02:05;;;;;;;15.20;6.90;;;3.00;64.40;;;;;;5032418;28;20398;-72
2023/04/03 01:04:36;;;;;;;13.77;7.37;;;3.00;63.70;;;;;;5032528;28;20879;-71
2023/04/03 01:07:07;;;;;;;10.52;7.28;;;3.00;63.50;;;;;;5032334;28;20411;-73
2023/04/03 01:09:33;;;;;;;13.70;7.25;;;3.00;63.80;;;;;;5032471;28;20937;-72
2023/04/03 01:12:16;;;;;;;10.18;6.75;;;3.00;64.10;;;;;;5032175;28;20399;-73
2023/04/03 01:14:41;;;;;;;7.93;6.68;;;3.00;64.30;;;;;;5032546;28;20412;-72
2023/04/03 01:17:32;;;;;;;10.63;6.70;;;2.90;64.10;;;;;;5032363;28;20394;-71
2023/04/03 01:20:35;;;;;;;10.15;7.43;;;2.90;64.50;;;;;;5031995;28;20390;-74
2023/04/03 01:23:09;;;;;;;10.05;7.53;;;2.80;64.50;;;;;;5008513;28;20413;-72
2023/04/03 01:25:55;;;;;;;12.23;7.80;;;2.80;65.00;;;;;;5032253;28;20795;-72
2023/04/03 01:28:33;;;;;;;11.05;7.80;;;2.80;65.00;;;;;;5032040;28;20498;-71
2023/04/03 01:31:21;;;;;;;11.17;7.63;;;2.70;65.10;;;;;;5031970;28;20426;-71
2023/04/03 01:33:46;;;;;;;8.83;7.50;;;2.70;65.20;;;;;;5030887;28;20383;-72
2023/04/03 01:36:28;;;;;;;12.98;7.88;;;2.70;65.40;;;;;;5031538;28;20898;-73
2023/04/03 01:38:54;;;;;;;11.73;7.85;;;2.70;64.80;;;;;;5032158;28;20379;-73
2023/04/03 01:41:20;;;;;;;11.20;7.50;;;2.80;64.20;;;;;;5031961;28;20463;-72
2023/04/03 01:43:46;;;;;;;10.57;7.55;;;2.80;63.60;;;;;;5030673;28;20482;-72
2023/04/03 01:46:12;;;;;;;10.95;7.80;;;2.70;63.50;;;;;;5032220;28;20410;-73
2023/04/03 01:48:38;;;;;;;9.27;7.33;;;2.70;63.50;;;;;;5030723;28;20908;-72
2023/04/03 01:51:03;;;;;;;14.23;7.95;;;2.70;63.40;;;;;;5031293;28;20458;-73
2023/04/03 01:53:29;;;;;;;13.30;8.18;;;2.70;63.30;;;;;;5031925;28;20728;-73
2023/04/03 01:55:54;;;;;;;11.60;7.30;;;2.80;62.90;;;;;;5030237;28;20410;-72
2023/04/03 01:58:20;;;;;;;11.77;7.57;;;2.70;62.80;;;;;;5029999;28;20410;-72
2023/04/03 02:00:46;;;;;;;12.87;7.23;;;2.70;62.80;;;;;;5031198;28;20801;-72
2023/04/03 02:03:11;;;;;;;9.07;6.88;;;2.80;62.30;;;;;;5031207;28;20395;-71
2023/04/03 02:05:37;;;;;;;15.05;7.43;;;2.80;62.00;;;;;;5031218;28;20391;-71
2023/04/03 02:08:03;;;;;;;14.27;7.38;;;2.80;62.20;;;;;;5031113;28;20490;-71
2023/04/03 02:10:29;;;;;;;10.27;7.43;;;2.80;61.50;;;;;;5031069;28;20904;-72
2023/04/03 02:12:55;;;;;;;13.07;7.10;;;2.80;61.30;;;;;;5029739;28;20937;-70
2023/04/03 02:15:20;;;;;;;12.68;7.50;;;2.80;60.90;;;;;;5031138;28;20382;-73
2023/04/03 02:17:46;;;;;;;15.50;7.60;;;2.80;60.90;;;;;;5030279;28;20927;-73
2023/04/03 02:20:12;;;;;;;11.30;6.87;;;2.80;61.00;;;;;;5031246;28;20395;-73
2023/04/03 02:22:37;;;;;;;9.60;6.60;;;2.80;61.50;;;;;;5031582;28;20387;-72
2023/04/03 02:25:03;;;;;;;13.23;7.40;;;2.80;61.20;;;;;;5031421;28;20453;-73
2023/04/03 02:27:29;;;;;;;9.73;7.15;;;2.80;61.40;;;;;;5031249;28;20768;-74
2023/04/03 02:29:55;;;;;;;10.88;7.32;;;2.80;61.80;;;;;;5030988;28;20379;-73
2023/04/03 02:32:20;;;;;;;10.63;8.20;;;2.70;62.30;;;;;;5030825;28;20397;-72
2023/04/03 02:34:46;;;;;;;13.87;7.80;;;2.70;62.60;;;;;;5031101;28;20485;-73
2023/04/03 02:37:11;;;;;;;11.05;7.65;;;2.70;62.70;;;;;;5030845;28;20709;-72
2023/04/03 02:39:37;;;;;;;12.10;8.20;;;2.70;63.00;;;;;;5030856;28;20383;-72
2023/04/03 02:42:03;;;;;;;11.75;8.30;;;2.70;63.60;;;;;;5031203;28;20391;-70
2023/04/03 02:44:29;;;;;;;13.90;9.27;;;2.70;64.00;;;;;;5032816;28;20391;-72
2023/04/03 02:46:55;;;;;;;15.50;8.70;;;2.70;64.90;;;;;;5037657;28;20426;-71
2023/04/03 02:49:20;;;;;;;14.07;8.70;;;2.70;65.20;;;;;;5051027;28;20378;-72
2023/04/03 02:51:47;;;;;;;11.48;8.80;;;2.70;65.40;;;;;;5049507;28;20393;-73
2023/04/03 02:54:13;;;;;;;13.27;8.65;;;2.80;64.80;;;;;;5046669;28;20421;-72
2023/04/03 02:56:38;;;;;;;14.77;9.00;;;2.80;64.60;;;;;;5047225;28;20387;-71
2023/04/03 02:59:04;;;;;;;12.30;8.63;;;2.80;64.80;;;;;;5043766;28;20387;-71
2023/04/03 03:01:32;;;;;;;11.45;8.30;;;2.80;64.70;;;;;;5039980;28;20466;-73
2023/04/03 03:03:58;;;;;;;10.82;8.25;;;2.90;64.40;;;;;;5042336;28;20383;-71
2023/04/03 03:06:24;;;;;;;12.27;8.75;;;2.90;64.40;;;;;;5044318;28;20760;-73
2023/04/03 03:08:49;;;;;;;13.13;8.73;;;2.90;64.30;;;;;;5037926;28;20401;-72
2023/04/03 03:11:15;;;;;;;10.25;8.00;;;2.90;65.10;;;;;;5041048;28;20379;-72
2023/04/03 03:13:41;;;;;;;15.45;8.95;;;2.90;64.20;;;;;;5043852;28;20383;-73
2023/04/03 03:16:07;;;;;;;13.67;8.70;;;2.90;64.20;;;;;;5037110;28;20466;-72
2023/04/03 03:18:34;;;;;;;15.48;8.95;;;2.90;63.60;;;;;;5034570;28;20394;-72
2023/04/03 03:21:02;;;;;;;12.55;7.40;;;2.90;63.90;;;;;;5053506;22;20441;-76
2023/04/03 03:23:30;;;;;;;15.70;9.80;;;2.90;62.80;;;;;;5055562;28;20405;-76
2023/04/03 03:26:01;;;;;;;12.93;8.02;;;2.90;64.10;;;;;;5055712;28;20469;-77
2023/04/03 03:28:27;;;;;;;11.88;7.43;;;2.90;63.60;;;;;;5057137;28;20400;-76
2023/04/03 03:30:53;;;;;;;10.10;6.95;;;2.90;63.40;;;;;;5091546;28;20421;-76
2023/04/03 03:33:19;;;;;;;15.57;8.80;;;2.90;62.30;;;;;;5084653;28;20392;-76
2023/04/03 03:35:45;;;;;;;11.75;7.65;;;2.80;67.10;;;;;;5083913;28;20414;-76
2023/04/03 03:38:11;;;;;;;14.90;7.78;;;2.80;66.90;;;;;;5095451;28;20418;-76
2023/04/03 03:40:37;;;;;;;11.90;6.97;;;2.80;65.00;;;;;;5080319;28;20390;-76
2023/04/03 03:43:02;;;;;;;11.43;7.60;;;2.80;63.30;;;;;;5074232;28;20853;-76
2023/04/03 03:45:28;;;;;;;9.70;6.90;;;2.90;64.00;;;;;;5074124;28;20375;-76
2023/04/03 03:47:54;;;;;;;10.67;6.30;;;3.00;62.90;;;;;;5074778;28;20555;-76
2023/04/03 03:50:19;;;;;;;11.13;7.20;;;2.90;61.00;;;;;;5074246;28;20860;-76
2023/04/03 03:52:45;;;;;;;13.03;7.53;;;2.80;62.60;;;;;;5073958;28;20387;-76
2023/04/03 03:55:11;;;;;;;9.20;6.68;;;2.90;64.30;;;;;;5072413;28;20951;-76
2023/04/03 03:57:37;;;;;;;11.63;6.80;;;2.90;62.90;;;;;;5073887;28;20411;-76
2023/04/03 04:00:03;;;;;;;11.93;7.80;;;2.80;63.40;;;;;;5073527;28;20389;-76
2023/04/03 04:02:29;;;;;;;12.98;7.43;;;2.90;63.70;;;;;;5073545;28;20820;-76
2023/04/03 04:04:55;;;;;;;10.57;7.05;;;2.90;63.90;;;;;;5074046;28;20640;-76
2023/04/03 04:07:21;;;;;;;9.02;5.90;;;2.90;62.70;;;;;;5073397;28;20404;-77
2023/04/03 04:09:46;;;;;;;13.88;7.43;;;2.80;61.10;;;;;;5075803;28;20433;-77
2023/04/03 04:12:12;;;;;;;11.27;6.77;;;2.70;66.60;;;;;;5075446;28;20402;-77
2023/04/03 04:14:37;;;;;;;13.57;7.70;;;2.80;61.60;;;;;;5074768;28;20753;-76
2023/04/03 04:17:03;;;;;;;14.10;7.80;;;2.90;63.40;;;;;;5073549;28;20388;-76
2023/04/03 04:19:29;;;;;;;11.18;5.90;;;2.90;63.90;;;;;;5074313;28;20384;-76
2023/04/03 04:21:54;;;;;;;13.02;6.30;;;2.80;63.10;;;;;;5074937;28;20453;-76
2023/04/03 04:24:20;;;;;;;11.50;7.07;;;2.80;62.10;;;;;;5073684;28;20463;-77
2023/04/03 04:26:45;;;;;;;18.07;7.60;;;2.80;64.60;;;;;;5072790;28;20404;-76
2023/04/03 04:29:11;;;;;;;15.67;6.43;;;2.80;65.30;;;;;;5073042;28;20836;-76
2023/04/03 04:31:36;;;;;;;13.55;7.50;;;2.80;63.00;;;;;;5077201;28;20411;-76
2023/04/03 04:34:02;;;;;;;13.25;8.13;;;2.80;65.00;;;;;;5091610;28;20386;-76
2023/04/03 04:36:28;;;;;;;13.23;7.40;;;2.80;67.10;;;;;;5091579;28;20400;-76
2023/04/03 04:38:53;;;;;;;9.43;5.33;;;2.80;66.10;;;;;;5072288;28;20422;-76
2023/04/03 04:41:22;;;;;;;10.85;6.70;;;2.80;61.50;;;;;;5071806;28;20813;-77
2023/04/03 04:43:50;;;;;;;7.88;5.10;;;2.80;62.00;;;;;;5072624;28;20391;-76
2023/04/03 04:46:17;;;;;;;6.78;5.50;;;2.70;59.50;;;;;;5072639;28;20457;-77
2023/04/03 04:48:43;;;;;;;14.07;5.18;;;2.70;60.50;;;;;;5071420;28;20388;-76
2023/04/03 04:51:09;;;;;;;10.07;5.93;;;2.70;60.60;;;;;;5072482;28;20378;-76
2023/04/03 04:53:35;;;;;;;9.75;6.05;;;2.60;61.90;;;;;;5072945;28;20376;-77
2023/04/03 04:56:00;;;;;;;9.80;6.45;;;2.60;61.90;;;;;;5072292;28;20388;-77
2023/04/03 04:58:26;;;;;;;12.18;6.90;;;2.60;62.20;;;;;;5072112;28;20402;-76
2023/04/03 05:01:03;;;;;;;15.57;7.50;;;2.70;64.10;;;;;;5073240;28;20437;-76
2023/04/03 05:03:28;;;;;;;15.75;7.38;;;2.60;64.40;;;;;;5073346;28;20376;-76
2023/04/03 05:05:54;;;;;;;11.43;5.57;;;2.60;66.70;;;;;;5072062;28;20379;-77
2023/04/03 05:08:20;;;;;;;9.40;5.83;;;2.60;66.20;;;;;;5072153;28;20410;-76
2023/04/03 05:10:46;;;;;;;10.33;5.70;;;2.60;65.80;;;;;;5071433;28;20384;-77
2023/04/03 05:13:11;;;;;;;14.68;7.28;;;2.70;64.70;;;;;;5071389;28;20380;-77
2023/04/03 05:15:37;;;;;;;11.17;6.13;;;2.70;69.40;;;;;;5072226;28;20376;-77
2023/04/03 05:18:02;;;;;;;10.03;5.00;;;2.80;64.90;;;;;;5070388;28;20387;-75
2023/04/03 05:20:28;;;;;;;11.60;5.80;;;2.70;62.10;;;;;;5008159;28;1809525;-75
2023/04/03 05:22:53;;;;;;;10.82;4.65;;;2.70;62.20;;;;;;5072516;28;20487;-75
2023/04/03 05:25:19;;;;;;;8.88;4.65;;;2.70;59.60;;;;;;5072424;28;20728;-75
2023/04/03 05:27:44;;;;;;;11.43;4.50;;;2.70;59.40;;;;;;5072378;28;20399;-75
2023/04/03 05:30:10;;;;;;;10.23;5.17;;;2.70;58.70;;;;;;5077061;28;20395;-76
2023/04/03 05:32:36;;;;;;;11.52;5.60;;;2.70;59.60;;;;;;5078768;28;20457;-76
2023/04/03 05:35:02;;;;;;;6.45;4.20;;;2.70;61.80;;;;;;5076692;28;20387;-75
2023/04/03 05:37:27;;;;;;;9.77;5.17;;;2.70;59.40;;;;;;5072854;28;20473;-76
2023/04/03 05:39:53;;;;;;;9.43;4.43;;;2.70;60.20;;;;;;5072744;28;20387;-75
2023/04/03 05:42:18;;;;;;;11.60;5.50;;;2.80;58.40;;;;;;5071840;28;20479;-75
2023/04/03 05:44:46;;;;;;;9.50;4.87;;;2.80;60.00;;;;;;5074413;28;20467;-76
2023/04/03 05:47:12;;;;;;;7.05;4.05;;;2.80;58.20;;;;;;5073129;28;20407;-77
2023/04/03 05:49:40;;;;;;;8.00;4.33;;;2.80;57.80;;;;;;5071238;28;20387;-76
2023/04/03 05:52:29;;;;;;;11.93;5.25;;;2.80;57.10;;;;;;5071852;28;20387;-77
2023/04/03 05:54:55;;;;;;;11.88;5.05;;;2.80;57.70;;;;;;5065383;28;20535;-75
2023/04/03 05:57:21;;;;;;;10.57;4.25;;;2.80;57.50;;;;;;5072107;28;20748;-76
2023/04/03 05:59:47;;;;;;;9.50;4.75;;;2.90;56.00;;;;;;5072170;28;20379;-76
2023/04/03 06:02:17;;;;;;;10.73;5.38;;;2.90;55.90;;;;;;5072318;28;20396;-76
2023/04/03 06:04:43;;;;;;;9.50;5.72;;;3.00;55.50;;;;;;5072328;28;20413;-76
2023/04/03 06:07:14;;;;;;;6.75;4.03;;;2.90;55.60;;;;;;5073301;28;20427;-76
2023/04/03 06:09:39;;;;;;;10.45;4.70;;;3.00;54.80;;;;;;5072764;28;20383;-76
2023/04/03 06:12:05;;;;;;;11.93;4.43;;;3.00;54.70;;;;;;5072567;28;20467;-76
2023/04/03 06:14:31;;;;;;;11.32;4.70;;;3.10;54.90;;;;;;5073477;28;20425;-76
2023/04/03 06:16:56;;;;;;;7.37;4.47;;;3.10;55.30;;;;;;5074059;28;20467;-76
2023/04/03 06:19:22;;;;;;;10.30;5.10;;;3.10;54.40;;;;;;5075620;28;20386;-76
2023/04/03 06:21:48;;;;;;;7.72;4.70;;;3.20;56.50;;;;;;5074804;28;20433;-76
2023/04/03 06:24:16;;;;;;;11.13;4.50;;;3.20;54.40;;;;;;5078841;28;20470;-76
2023/04/03 06:26:42;;;;;;;8.80;4.80;;;3.30;53.60;;;;;;5083543;28;20478;-75
2023/04/03 06:29:08;;;;;;;10.70;5.27;;;3.30;54.30;;;;;;5084957;28;20440;-76
2023/04/03 06:31:34;;;;;;;9.80;4.90;;;3.30;55.40;;;;;;5085585;28;20422;-76
2023/04/03 06:34:00;;;;;;;11.85;4.50;;;3.40;54.70;;;;;;5089515;28;20407;-75
2023/04/03 06:36:25;;;;;;;13.02;4.30;;;3.50;53.20;;;;;;5084640;28;20741;-77
2023/04/03 06:38:51;;;;;;;10.73;4.07;;;3.50;51.80;;;;;;5071575;28;20468;-75
2023/04/03 06:41:17;;;;;;;10.33;5.97;;;3.50;50.20;;;;;;5071424;28;20392;-75
2023/04/03 06:43:43;;;;;;;10.60;5.30;;;3.50;53.00;;;;;;5072227;28;20512;-75
2023/04/03 06:46:21;;;;;;;13.13;6.10;;;3.60;53.80;;;;;;5071280;28;20383;-75
2023/04/03 06:48:47;;;;;;;11.30;4.22;;;3.80;55.40;;;;;;5071396;28;20403;-75
2023/04/03 06:51:21;;;;;;;7.70;4.20;;;3.80;50.00;;;;;;5070170;28;20462;-75
2023/04/03 06:53:47;;;;;;;8.52;4.80;;;3.90;49.70;;;;;;5071711;28;20433;-76
2023/04/03 06:56:13;;;;;;;10.65;4.40;;;3.90;50.80;;;;;;5071522;28;20803;-76
2023/04/03 06:58:40;;;;;;;10.63;4.80;;;4.00;47.80;;;;;;5071937;28;20384;-76
2023/04/03 07:01:06;;;;;;;11.50;4.70;;;4.00;52.10;;;;;;5071931;28;20758;-75
2023/04/03 07:03:31;;;;;;;11.20;5.70;;;4.10;49.50;;;;;;5073002;28;20506;-77
2023/04/03 07:05:57;;;;;;;13.47;4.47;;;4.30;53.60;;;;;;5074889;28;20447;-76
2023/04/03 07:08:23;;;;;;;7.97;4.73;;;4.40;47.40;;;;;;5085134;28;20471;-75
2023/04/03 07:10:50;;;;;;;11.20;5.50;;;4.50;48.20;;;;;;5087929;28;20447;-75
2023/04/03 07:13:15;;;;;;;6.47;3.50;;;4.50;49.40;;;;;;5071378;28;20388;-76
2023/04/03 07:15:41;;;;;;;7.57;3.87;;;4.60;42.80;;;;;;5071553;28;20467;-76
2023/04/03 07:18:07;;;;;;;14.35;4.78;;;4.50;43.40;;;;;;5073091;28;20390;-75
2023/04/03 07:20:32;;;;;;;6.88;4.15;;;4.60;49.10;;;;;;5072517;28;20394;-78
2023/04/03 07:22:58;;;;;;;8.53;4.03;;;4.70;46.50;;;;;;5070086;28;20813;-75
2023/04/03 07:25:23;;;;;;;10.67;4.63;;;4.80;43.20;;;;;;5071792;28;20406;-77
2023/04/03 07:27:49;;;;;;;12.00;3.40;;;4.80;43.10;;;;;;5072246;28;20792;-74
2023/04/03 07:30:15;;;;;;;9.90;4.03;;;4.80;40.70;;;;;;5071839;28;20399;-75
2023/04/03 07:32:41;;;;;;;9.07;4.95;;;4.90;42.00;;;;;;5070822;28;20471;-76
2023/04/03 07:35:07;;;;;;;10.23;5.20;;;4.90;43.90;;;;;;5072772;28;20466;-75
2023/04/03 07:37:32;;;;;;;10.48;4.30;;;4.90;44.40;;;;;;5075475;28;20399;-76
2023/04/03 07:39:59;;;;;;;9.30;4.00;;;5.00;42.60;;;;;;5077152;28;20399;-76
2023/04/03 07:42:27;;;;;;;8.18;3.10;;;5.10;42.00;;;;;;5072537;28;21049;-76
2023/04/03 07:44:53;;;;;;;8.25;3.67;;;5.10;36.50;;;;;;5073439;28;20410;-77
2023/04/03 07:47:20;;;;;;;8.10;3.37;;;5.10;39.10;;;;;;5073961;28;20404;-77
2023/04/03 07:49:45;;;;;;;8.40;3.30;;;5.20;38.30;;;;;;5073452;28;20395;-76
2023/04/03 07:52:11;;;;;;;10.65;3.60;;;5.40;37.00;;;;;;5072267;28;20889;-76
2023/04/03 07:54:37;;;;;;;8.77;3.40;;;5.40;38.50;;;;;;5072680;28;20942;-77
2023/04/03 07:57:03;;;;;;;8.17;3.60;;;5.50;37.40;;;;;;5070777;28;20621;-77
2023/04/03 07:59:29;;;;;;;7.93;3.15;;;5.60;35.90;;;;;;5072811;28;20375;-77
2023/04/03 08:01:55;;;;;;;5.82;3.00;;;5.70;31.80;;;;;;5072744;28;20402;-77
2023/04/03 08:04:20;;;;;;;12.07;4.38;;;5.80;30.10;;;;;;5072597;28;20395;-77
2023/04/03 08:06:46;;;;;;;6.20;3.10;;;5.80;34.20;;;;;;5073268;28;20430;-77
2023/04/03 08:09:12;;;;;;;9.00;3.63;;;5.80;32.90;;;;;;5071349;28;20404;-77
2023/04/03 08:11:39;;;;;;;7.87;3.50;;;5.90;30.70;;;;;;5074792;28;20406;-77
2023/04/03 08:14:05;;;;;;;10.25;3.88;;;6.00;30.30;;;;;;5072838;28;20899;-77
2023/04/03 08:16:30;;;;;;;5.57;2.80;;;6.10;28.10;;;;;;5072758;28;20387;-76
2023/04/03 08:18:56;;;;;;;8.00;3.60;;;6.20;26.30;;;;;;5072641;28;20464;-77
2023/04/03 08:21:22;;;;;;;9.10;3.40;;;6.30;29.30;;;;;;5073285;28;20954;-76
2023/04/03 08:23:52;;;;;;;8.00;4.00;;;6.30;28.20;;;;;;5071361;28;20892;-76
2023/04/03 08:26:21;;;;;;;11.10;4.20;;;6.30;26.80;;;;;;5072218;28;20396;-75
2023/04/03 08:28:47;;;;;;;8.00;3.60;;;6.30;25.60;;;;;;5072447;28;20400;-75
2023/04/03 08:31:16;;;;;;;11.05;4.00;;;6.40;26.80;;;;;;5071786;28;20818;-75
2023/04/03 08:33:42;;;;;;;9.15;3.17;;;6.40;24.80;;;;;;5071343;28;20404;-75
2023/04/03 08:36:17;;;;;;;7.43;3.45;;;6.40;23.30;;;;;;5067749;28;20789;-75
2023/04/03 08:38:43;;;;;;;9.52;3.80;;;6.60;26.00;;;;;;5061063;28;20380;-75
2023/04/03 08:41:33;;;;;;;6.30;3.45;;;6.70;23.20;;;;;;5066400;28;20472;-74
2023/04/03 08:44:22;;;;;;;8.43;3.92;;;6.80;21.60;;;;;;5070613;28;20445;-74
2023/04/03 08:47:06;;;;;;;6.70;3.70;;;6.80;20.20;;;;;;5070383;28;20510;-75
2023/04/03 08:49:36;;;;;;;9.07;4.18;;;6.80;20.30;;;;;;5071542;28;20384;-73
2023/04/03 08:52:08;;;;;;;8.03;2.30;;;6.90;21.60;;;;;;5070619;28;20879;-72
2023/04/03 08:54:41;;;;;;;6.00;3.25;;;7.00;18.80;;;;;;5071097;28;20415;-72
2023/04/03 08:57:06;;;;;;;6.93;2.60;;;6.90;18.10;;;;;;5069077;28;20813;-74
2023/04/03 08:59:35;;;;;;;6.40;2.60;;;6.80;18.30;;;;;;5071219;28;20864;-74
2023/04/03 09:02:06;;;;;;;5.82;2.80;;;6.80;17.60;;;;;;5070685;28;20706;-73
2023/04/03 09:04:33;;;;;;;7.43;3.42;;;6.90;17.50;;;;;;5070469;28;20394;-74
2023/04/03 09:07:14;;;;;;;8.98;4.15;;;7.00;18.90;;;;;;5070814;28;20495;-74
2023/04/03 09:09:42;;;;;;;8.05;4.13;;;7.10;19.60;;;;;;5071951;28;20402;-75
2023/04/03 09:12:23;;;;;;;13.02;5.25;;;7.30;19.80;;;;;;5070565;28;20407;-75
2023/04/03 09:15:14;;;;;;;12.45;5.00;;;7.30;18.40;;;;;;5069121;28;20400;-74
2023/04/03 09:18:01;;;;;;;5.53;2.95;;;7.50;17.40;;;;;;5059167;28;20873;-75
2023/04/03 09:20:45;;;;;;;10.82;4.10;;;7.50;16.40;;;;;;5052415;28;20385;-74
2023/04/03 09:23:31;;;;;;;6.40;2.15;;;7.30;16.80;;;;;;5065530;28;20516;-74
2023/04/03 09:26:04;;;;;;;6.70;3.08;;;7.20;14.70;;;;;;5075367;28;20617;-74
2023/04/03 09:28:35;;;;;;;12.13;4.85;;;7.20;16.20;;;;;;5084876;28;20399;-74
2023/04/03 09:31:18;;;;;;;7.60;2.53;;;7.30;18.00;;;;;;5086396;28;20884;-72
2023/04/03 09:33:45;;;;;;;7.57;3.40;;;7.50;16.50;;;;;;5088958;28;20509;-74
2023/04/03 09:36:11;;;;;;;7.82;3.15;;;7.60;16.60;;;;;;5087850;28;20420;-74
2023/04/03 09:38:36;;;;;;;8.32;3.33;;;7.60;15.30;;;;;;5085888;28;20449;-74
2023/04/03 09:41:16;;;;;;;5.05;3.03;;;7.60;14.90;;;;;;5083483;28;20418;-74
2023/04/03 09:43:52;;;;;;;5.22;3.20;;;7.70;14.30;;;;;;5086095;28;20896;-74
2023/04/03 09:46:34;;;;;;;5.00;2.80;;;7.70;14.80;;;;;;5069592;28;20728;-74
2023/04/03 09:49:05;;;;;;;8.30;3.60;;;7.70;13.30;;;;;;5083943;28;20391;-74
2023/04/03 09:51:31;;;;;;;3.25;1.63;;;7.70;12.60;;;;;;5086856;28;20395;-74
2023/04/03 09:53:58;;;;;;;5.72;2.70;;;7.60;10.10;;;;;;5084874;28;20483;-75
2023/04/03 09:56:28;;;;;;;7.22;3.28;;;7.50;11.30;;;;;;5085049;28;20425;-75
2023/04/03 09:59:00;;;;;;;8.73;3.88;;;7.60;14.40;;;;;;5085112;28;20852;-76
2023/04/03 10:01:35;;;;;;;7.95;3.38;;;7.70;13.60;;;;;;5085969;28;20387;-75
2023/04/03 10:04:18;;;;;;;5.07;2.60;;;7.90;12.10;;;;;;5085196;28;20416;-75
2023/04/03 10:06:50;;;;;;;8.02;4.07;;;7.90;13.00;;;;;;5084621;28;20458;-76
2023/04/03 10:09:28;;;;;;;8.55;4.07;;;7.90;14.00;;;;;;5085147;28;20507;-73
2023/04/03 10:12:06;;;;;;;9.80;4.70;;;7.90;14.60;;;;;;5082284;28;20383;-75
2023/04/03 10:14:55;;;;;;;6.20;2.70;;;8.00;15.00;;;;;;5084821;28;20946;-75
2023/04/03 10:17:20;;;;;;;15.82;5.63;;;8.20;12.00;;;;;;5084875;28;20781;-75
2023/04/03 10:20:11;;;;;;;12.50;4.77;;;8.30;15.50;;;;;;5086996;28;20471;-75
2023/04/03 10:22:51;;;;;;;9.25;4.15;;;8.30;14.90;;;;;;5085911;28;20395;-75
2023/04/03 10:25:39;;;;;;;9.93;5.15;;;8.40;14.30;;;;;;5086294;28;20925;-74
2023/04/03 10:28:27;;;;;;;9.23;3.73;;;8.40;14.10;;;;;;5084654;28;20509;-75
2023/04/03 10:31:08;;;;;;;7.25;4.13;;;8.40;15.30;;;;;;5084751;28;20909;-75
2023/04/03 10:33:39;;;;;;;7.07;3.30;;;8.40;14.90;;;;;;5081056;28;20387;-76
2023/04/03 10:36:22;;;;;;;8.95;4.38;;;8.50;14.30;;;;;;5083107;28;20426;-75
2023/04/03 10:38:55;;;;;;;6.35;3.40;;;8.50;14.60;;;;;;5084092;28;20392;-76
2023/04/03 10:41:42;;;;;;;8.37;4.00;;;8.50;15.90;;;;;;5082498;28;20391;-75
2023/04/03 10:44:16;;;;;;;6.63;2.30;;;8.70;16.10;;;;;;5080824;28;20454;-75
2023/04/03 10:46:49;;;;;;;8.00;3.45;;;8.80;12.90;;;;;;5081042;28;20411;-74
2023/04/03 10:49:55;;;;;;;6.45;3.45;;;8.70;14.60;;;;;;5081979;28;20382;-75
2023/04/03 10:52:47;;;;;;;9.93;4.88;;;8.80;15.50;;;;;;5018557;28;20390;-76
2023/04/03 10:55:29;;;;;;;9.50;3.20;;;8.80;14.60;;;;;;5084103;28;20380;-75
2023/04/03 10:57:58;;;;;;;7.53;3.33;;;8.90;13.90;;;;;;5083856;28;20388;-75
2023/04/03 11:00:41;;;;;;;8.60;2.47;;;8.90;14.10;;;;;;5082266;28;20384;-75
2023/04/03 11:03:20;;;;;;;6.13;2.60;;;9.00;12.20;;;;;;5084360;28;20384;-75
2023/04/03 11:05:50;;;;;;;6.30;3.60;;;8.90;12.80;;;;;;5082678;28;20912;-75
2023/04/03 11:08:39;;;;;;;10.43;3.78;;;8.90;14.80;;;;;;5083419;28;20407;-75
2023/04/03 11:11:09;;;;;;;7.90;4.78;;;8.90;14.60;;;;;;5085514;28;20388;-76
2023/04/03 11:13:42;;;;;;;7.45;3.42;;;9.20;15.00;;;;;;5088039;28;20379;-75
2023/04/03 11:16:08;;;;;;;11.63;1.70;;;9.20;12.70;;;;;;5087722;28;20399;-75
2023/04/03 11:18:46;;;;;;;9.57;2.30;;;9.10;9.70;;;;;;5088770;28;20769;-75
2023/04/03 11:21:24;;;;;;;5.30;2.97;;;9.00;10.70;;;;;;5087244;28;20656;-75
2023/04/03 11:23:51;;;;;;;5.90;2.00;;;9.10;12.80;;;;;;5085585;28;20392;-75
2023/04/03 11:26:21;;;;;;;3.03;1.70;;;9.10;9.10;;;;;;5087592;28;20411;-75
2023/04/03 11:28:53;;;;;;;7.53;4.18;;;9.10;8.50;;;;;;5086586;28;20404;-76
2023/04/03 11:31:40;;;;;;;5.73;2.50;;;9.20;12.50;;;;;;5088456;28;20451;-75
2023/04/03 11:34:40;;;;;;;6.30;2.10;;;9.40;10.40;;;;;;5086027;28;20405;-75
2023/04/03 11:37:32;;;;;;;4.35;2.00;;;9.50;11.30;;;;;;5087663;28;20408;-75
2023/04/03 11:40:03;;;;;;;6.03;2.20;;;9.60;8.80;;;;;;5075178;28;20446;-75
2023/04/03 11:42:40;;;;;;;4.05;1.50;;;9.70;9.60;;;;;;5090008;28;20380;-75
2023/04/03 11:45:27;;;;;;;5.50;2.92;;;9.50;8.30;;;;;;5088837;28;20403;-76
2023/04/03 11:47:59;;;;;;;4.63;2.10;;;9.60;10.10;;;;;;5088246;28;20489;-74
2023/04/03 11:50:33;;;;;;;4.65;1.80;;;9.70;9.00;;;;;;5088135;28;20413;-75
2023/04/03 11:53:05;;;;;;;5.05;2.05;;;9.70;7.90;;;;;;5088988;28;20406;-75
2023/04/03 11:55:30;;;;;;;5.45;2.22;;;9.70;8.40;;;;;;5079926;28;20451;-74
2023/04/03 11:57:59;;;;;;;5.50;2.50;;;9.60;7.90;;;;;;5078151;28;20434;-75
2023/04/03 12:00:43;;;;;;;4.68;1.60;;;9.70;9.90;;;;;;5076288;28;20907;-75
2023/04/03 12:03:27;;;;;;;8.13;3.30;;;9.70;8.60;;;;;;5077542;28;20832;-75
2023/04/03 12:06:13;;;;;;;5.50;2.03;;;9.80;10.50;;;;;;5081833;28;20407;-75
2023/04/03 12:08:41;;;;;;;4.18;2.30;;;10.00;8.60;;;;;;5080835;28;20427;-75
2023/04/03 12:11:10;;;;;;;5.65;2.83;;;10.10;9.00;;;;;;5086736;28;20746;-75
2023/04/03 12:13:57;;;;;;;5.40;2.78;;;10.00;9.00;;;;;;5090553;28;20458;-75
2023/04/03 12:16:33;;;;;;;4.50;2.90;;;10.10;10.10;;;;;;5089933;28;20384;-76
2023/04/03 12:19:14;;;;;;;4.07;1.65;;;10.10;9.90;;;;;;5083939;28;20392;-76
2023/04/03 12:21:46;;;;;;;7.90;1.73;;;10.20;7.80;;;;;;5077214;28;20396;-76
2023/04/03 12:24:20;;;;;;;2.40;1.83;;;10.10;7.10;;;;;;5077218;28;20376;-76
2023/04/03 12:27:15;;;;;;;3.50;1.90;;;10.00;6.30;;;;;;5086535;28;20401;-75
2023/04/03 12:29:47;;;;;;;9.90;2.40;;;10.00;8.10;;;;;;5084871;28;20395;-76
2023/04/03 12:32:35;;;;;;;7.32;3.22;;;10.10;8.00;;;;;;5082600;28;20384;-75
2023/04/03 12:35:35;;;;;;;2.88;1.58;;;10.10;9.60;;;;;;5091127;28;20375;-76
2023/04/03 12:38:24;;;;;;;7.50;2.78;;;10.20;7.60;;;;;;5075548;28;20440;-75
2023/04/03 12:40:49;;;;;;;3.55;1.63;;;10.20;9.20;;;;;;5073195;28;20376;-77
2023/04/03 12:43:36;;;;;;;4.67;2.33;;;10.40;6.50;;;;;;5074334;28;20388;-75
2023/04/03 12:46:15;;;;;;;3.38;1.50;;;10.30;6.00;;;;;;5075742;28;20411;-75
2023/04/03 12:48:44;;;;;;;4.85;1.60;;;10.30;6.60;;;;;;5079360;28;20412;-77
2023/04/03 12:51:14;;;;;;;3.97;1.48;;;10.30;7.00;;;;;;5079842;28;20454;-76
2023/04/03 12:53:41;;;;;;;3.30;1.60;;;10.20;6.60;;;;;;5079475;28;20384;-76
2023/04/03 12:56:28;;;;;;;3.70;1.90;;;10.20;6.70;;;;;;5079733;28;20380;-76
2023/04/03 12:59:12;;;;;;;4.10;2.50;;;10.30;7.40;;;;;;5076436;28;20477;-76
2023/04/03 13:01:37;;;;;;;4.63;2.38;;;10.40;8.80;;;;;;5074922;28;20387;-75
2023/04/03 13:04:04;;;;;;;4.20;2.35;;;10.70;7.40;;;;;;5075386;28;20442;-76
2023/04/03 13:06:44;;;;;;;4.63;3.00;;;10.80;8.00;;;;;;5076248;28;20810;-76
2023/04/03 13:09:28;;;;;;;3.60;1.80;;;10.80;6.80;;;;;;5076656;28;20748;-76